Terminal Aerodrome Forecast
Issued by NWS Flagstaff, AZ

Home | Current Version | Previous Version | Text Only | Print | Product List | Glossary On
Versions: 1 2 3 4 5 6 7 8 9 10 11 12 13 14
000
FTUS45 KFGZ 282300
TAFFLG
TAF
KFLG 282331Z 2900/2924 24011G20KT P6SM SKC
     FM290200 VRB03KT P6SM SKC
     FM291800 22010G18KT P6SM SCT250=

USA.gov is the U.S. government's official web portal to all federal, state and local government web resources and services.